Time;durP1;ratioP1;P1;durP2;ratioP2;P2;SDS_P1;SDS_P2;PMS_P1;PMS_P2;Temp;Humidity;BMP_temperature;BMP_pressure;BME280_temperature;BME280_humidity;BME280_pressure;Samples;Min_cycle;Max_cycle;Signal;HPM_P1;HPM_P2
2022/09/18 00:00:21;;;;;;;0.50;0.50;;;;;;;;;;1820914;78;26613;-55
2022/09/18 00:02:48;;;;;;;1.65;0.60;;;;;;;;;;1825418;78;26212;-58
2022/09/18 00:05:15;;;;;;;0.40;0.40;;;;;;;;;;1845907;77;26262;-56
2022/09/18 00:07:43;;;;;;;0.40;0.40;;;;;;;;;;1816965;78;26646;-56
2022/09/18 00:10:10;;;;;;;1.17;0.40;;;;;;;;;;1823022;78;26728;-54
2022/09/18 00:12:38;;;;;;;0.50;0.40;;;;;;;;;;1817407;78;26289;-62
2022/09/18 00:15:06;;;;;;;0.35;0.35;;;;;;;;;;1822360;78;26375;-57
2022/09/18 00:17:33;;;;;;;0.42;0.37;;;;;;;;;;1825554;78;26279;-55
2022/09/18 00:20:01;;;;;;;0.37;0.37;;;;;;;;;;1832261;78;26339;-53
2022/09/18 00:22:28;;;;;;;0.30;0.30;;;;;;;;;;1829475;78;26264;-55
2022/09/18 00:24:56;;;;;;;0.47;0.33;;;;;;;;;;1835626;78;26282;-57
2022/09/18 00:27:23;;;;;;;0.75;0.30;;;;;;;;;;1834774;77;26311;-57
2022/09/18 00:29:50;;;;;;;0.30;0.30;;;;;;;;;;1811960;78;26333;-56
2022/09/18 00:32:18;;;;;;;1.30;0.30;;;;;;;;;;1814354;78;26268;-58
2022/09/18 00:34:45;;;;;;;0.30;0.30;;;;;;;;;;1822629;78;26341;-56
2022/09/18 00:37:12;;;;;;;0.65;0.50;;;;;;;;;;1817190;78;26354;-56
2022/09/18 00:39:40;;;;;;;1.35;0.40;;;;;;;;;;1817031;77;26273;-55
2022/09/18 00:42:08;;;;;;;0.40;0.40;;;;;;;;;;1829342;77;26273;-58
2022/09/18 00:44:40;;;;;;;0.53;0.40;;;;;;;;;;1858755;76;26688;-57
2022/09/18 00:47:11;;;;;;;0.30;0.30;;;;;;;;;;1875332;76;26283;-59
2022/09/18 00:49:43;;;;;;;0.30;0.30;;;;;;;;;;1870964;76;26624;-59
2022/09/18 00:52:11;;;;;;;0.60;0.40;;;;;;;;;;1861464;76;26323;-52
2022/09/18 00:54:43;;;;;;;0.40;0.40;;;;;;;;;;1855159;76;27632;-55
2022/09/18 00:57:15;;;;;;;0.40;0.40;;;;;;;;;;1857681;76;26250;-57
2022/09/18 00:59:43;;;;;;;0.23;0.23;;;;;;;;;;1880440;75;26266;-52
2022/09/18 01:02:11;;;;;;;0.62;0.30;;;;;;;;;;1862898;76;26261;-58
2022/09/18 01:04:38;;;;;;;0.30;0.30;;;;;;;;;;1857484;76;26312;-54
2022/09/18 01:07:16;;;;;;;0.50;0.35;;;;;;;;;;1850996;76;26299;-58
2022/09/18 01:09:58;;;;;;;0.35;0.35;;;;;;;;;;1849313;76;26288;-57
2022/09/18 01:12:29;;;;;;;0.33;0.33;;;;;;;;;;1812149;79;26657;-54
2022/09/18 01:14:58;;;;;;;0.78;0.30;;;;;;;;;;1818068;78;26311;-56
2022/09/18 01:17:27;;;;;;;0.30;0.30;;;;;;;;;;1803830;79;26276;-60
2022/09/18 01:20:02;;;;;;;0.40;0.40;;;;;;;;;;1812176;78;26326;-56
2022/09/18 01:22:34;;;;;;;0.25;0.25;;;;;;;;;;1805681;78;26343;-54
2022/09/18 01:25:21;;;;;;;0.30;0.30;;;;;;;;;;1821071;78;26265;-55
2022/09/18 01:28:08;;;;;;;0.78;0.30;;;;;;;;;;1815925;78;26225;-57
2022/09/18 01:30:37;;;;;;;0.53;0.30;;;;;;;;;;1863067;75;26550;-59
2022/09/18 01:33:09;;;;;;;0.37;0.37;;;;;;;;;;1871137;76;26250;-58
2022/09/18 01:35:40;;;;;;;0.65;0.37;;;;;;;;;;1857876;75;26257;-58
2022/09/18 01:38:26;;;;;;;0.30;0.30;;;;;;;;;;1872060;74;26300;-58
2022/09/18 01:40:54;;;;;;;0.20;0.20;;;;;;;;;;1863215;75;26706;-55
2022/09/18 01:43:23;;;;;;;0.25;0.25;;;;;;;;;;1874243;75;26683;-59
2022/09/18 01:45:52;;;;;;;0.30;0.30;;;;;;;;;;1865311;75;26300;-55
2022/09/18 01:48:30;;;;;;;0.30;0.30;;;;;;;;;;1863851;75;26253;-57
2022/09/18 01:51:03;;;;;;;1.75;0.30;;;;;;;;;;1891143;74;26304;-58
2022/09/18 01:53:31;;;;;;;2.80;0.45;;;;;;;;;;1893514;75;26321;-58
2022/09/18 01:56:00;;;;;;;3.10;0.50;;;;;;;;;;1889841;75;26652;-59
2022/09/18 01:58:28;;;;;;;0.55;0.40;;;;;;;;;;1884669;75;26336;-54
2022/09/18 02:00:57;;;;;;;0.30;0.30;;;;;;;;;;1887505;75;26326;-56
2022/09/18 02:03:29;;;;;;;1.65;0.40;;;;;;;;;;1876525;75;26985;-57
2022/09/18 02:06:00;;;;;;;1.30;0.40;;;;;;;;;;1882338;75;26321;-54
2022/09/18 02:08:32;;;;;;;1.02;0.42;;;;;;;;;;1878760;75;26234;-54
2022/09/18 02:11:06;;;;;;;2.12;0.30;;;;;;;;;;1864887;74;26302;-56
2022/09/18 02:13:35;;;;;;;0.55;0.55;;;;;;;;;;1884045;75;26325;-52
2022/09/18 02:16:04;;;;;;;1.77;0.50;;;;;;;;;;1879396;75;26678;-56
2022/09/18 02:18:33;;;;;;;2.45;0.40;;;;;;;;;;1865929;75;26744;-57
2022/09/18 02:21:01;;;;;;;0.40;0.40;;;;;;;;;;1869562;75;26350;-57
2022/09/18 02:23:29;;;;;;;1.72;0.28;;;;;;;;;;1877644;75;26380;-55
2022/09/18 02:25:58;;;;;;;0.30;0.30;;;;;;;;;;1890921;75;26705;-52
2022/09/18 02:28:26;;;;;;;2.05;0.40;;;;;;;;;;1861581;75;26752;-55
2022/09/18 02:30:53;;;;;;;0.30;0.30;;;;;;;;;;1865501;75;26297;-59
2022/09/18 02:33:34;;;;;;;0.40;0.40;;;;;;;;;;1880744;75;26245;-53
2022/09/18 02:36:14;;;;;;;1.95;0.53;;;;;;;;;;1871434;75;26261;-56
2022/09/18 02:38:53;;;;;;;0.40;0.40;;;;;;;;;;1868028;75;26294;-56
2022/09/18 02:41:24;;;;;;;1.37;0.40;;;;;;;;;;1866441;76;26273;-56
2022/09/18 02:43:56;;;;;;;0.50;0.50;;;;;;;;;;1857299;75;26215;-56
2022/09/18 02:46:25;;;;;;;0.37;0.37;;;;;;;;;;1860670;76;26221;-56
2022/09/18 02:48:56;;;;;;;2.50;0.50;;;;;;;;;;1867941;76;26215;-55
2022/09/18 02:51:34;;;;;;;0.60;0.35;;;;;;;;;;1879121;76;26285;-55
2022/09/18 02:54:06;;;;;;;0.23;0.23;;;;;;;;;;1851088;76;26257;-55
2022/09/18 02:56:38;;;;;;;4.95;0.50;;;;;;;;;;1851406;76;26320;-54
2022/09/18 02:59:09;;;;;;;9.00;0.30;;;;;;;;;;1851805;76;26258;-57
2022/09/18 03:01:38;;;;;;;1.35;0.25;;;;;;;;;;1865239;76;26308;-55
2022/09/18 03:04:07;;;;;;;0.20;0.20;;;;;;;;;;1870200;76;26237;-59
2022/09/18 03:06:34;;;;;;;1.22;0.50;;;;;;;;;;1856957;76;26320;-60
2022/09/18 03:09:02;;;;;;;0.30;0.30;;;;;;;;;;1866591;76;26251;-56
2022/09/18 03:11:29;;;;;;;0.80;0.40;;;;;;;;;;1862096;76;26332;-57
2022/09/18 03:13:57;;;;;;;0.78;0.42;;;;;;;;;;1851325;75;26564;-61
2022/09/18 03:16:24;;;;;;;1.05;0.30;;;;;;;;;;1852837;76;26358;-58
2022/09/18 03:18:51;;;;;;;0.78;0.40;;;;;;;;;;1854859;76;26718;-59
2022/09/18 03:21:19;;;;;;;1.47;0.30;;;;;;;;;;1862818;76;27507;-60
2022/09/18 03:23:47;;;;;;;0.30;0.30;;;;;;;;;;1846804;76;26283;-57
2022/09/18 03:26:14;;;;;;;0.45;0.30;;;;;;;;;;1855606;76;26230;-58
2022/09/18 03:28:43;;;;;;;0.72;0.40;;;;;;;;;;1858982;76;26308;-60
2022/09/18 03:31:13;;;;;;;0.53;0.40;;;;;;;;;;1857915;75;26264;-56
2022/09/18 03:33:41;;;;;;;0.93;0.40;;;;;;;;;;1869455;76;26255;-61
2022/09/18 03:36:08;;;;;;;2.87;0.50;;;;;;;;;;1852237;75;26218;-59
2022/09/18 03:38:39;;;;;;;0.72;0.30;;;;;;;;;;1816316;78;26752;-59
2022/09/18 03:41:07;;;;;;;1.65;0.40;;;;;;;;;;1815397;77;26336;-59
2022/09/18 03:43:35;;;;;;;0.40;0.40;;;;;;;;;;1835779;78;26339;-59
2022/09/18 03:46:02;;;;;;;1.30;0.23;;;;;;;;;;1822596;78;26209;-59
2022/09/18 03:48:30;;;;;;;2.47;0.37;;;;;;;;;;1794923;78;26276;-56
2022/09/18 03:50:57;;;;;;;0.55;0.37;;;;;;;;;;1800718;78;26288;-59
2022/09/18 03:53:24;;;;;;;4.30;0.53;;;;;;;;;;1810768;78;26334;-59
2022/09/18 03:55:52;;;;;;;2.95;0.40;;;;;;;;;;1823813;78;26834;-59
2022/09/18 03:58:19;;;;;;;0.65;0.30;;;;;;;;;;1804940;78;27368;-59
2022/09/18 04:00:46;;;;;;;1.75;0.42;;;;;;;;;;1828539;78;26748;-59
2022/09/18 04:03:14;;;;;;;0.37;0.30;;;;;;;;;;1839201;77;26272;-59
2022/09/18 04:05:41;;;;;;;1.85;0.40;;;;;;;;;;1819078;78;26338;-62
2022/09/18 04:08:08;;;;;;;0.98;0.33;;;;;;;;;;1819024;78;26296;-59
2022/09/18 04:10:35;;;;;;;1.57;0.40;;;;;;;;;;1813755;78;26284;-56
2022/09/18 04:13:03;;;;;;;0.50;0.50;;;;;;;;;;1818378;78;26280;-59
2022/09/18 04:15:30;;;;;;;1.72;0.40;;;;;;;;;;1812023;78;26296;-60
2022/09/18 04:17:57;;;;;;;2.90;0.40;;;;;;;;;;1822477;78;26276;-59
2022/09/18 04:20:24;;;;;;;1.85;0.50;;;;;;;;;;1812784;78;26380;-57
2022/09/18 04:22:52;;;;;;;0.35;0.25;;;;;;;;;;1822990;78;26279;-59
2022/09/18 04:25:19;;;;;;;0.82;0.25;;;;;;;;;;1822139;77;26272;-59
2022/09/18 04:27:47;;;;;;;1.75;0.42;;;;;;;;;;1826635;78;26281;-56
2022/09/18 04:30:14;;;;;;;0.60;0.23;;;;;;;;;;1809989;78;26282;-59
2022/09/18 04:32:43;;;;;;;2.35;0.50;;;;;;;;;;1809084;78;26261;-59
2022/09/18 04:35:11;;;;;;;0.75;0.40;;;;;;;;;;1814216;78;26327;-59
2022/09/18 04:37:38;;;;;;;0.82;0.30;;;;;;;;;;1805244;78;26268;-57
2022/09/18 04:40:06;;;;;;;0.25;0.25;;;;;;;;;;1802331;78;26448;-59
2022/09/18 04:42:33;;;;;;;0.65;0.30;;;;;;;;;;1791350;78;26288;-60
2022/09/18 04:45:01;;;;;;;0.93;0.37;;;;;;;;;;1846138;76;26276;-59
2022/09/18 04:47:28;;;;;;;0.45;0.45;;;;;;;;;;1851084;76;26265;-59
2022/09/18 04:49:55;;;;;;;1.05;0.40;;;;;;;;;;1847246;76;27346;-60
2022/09/18 04:52:23;;;;;;;0.45;0.33;;;;;;;;;;1870949;76;26271;-57
2022/09/18 04:54:50;;;;;;;0.33;0.33;;;;;;;;;;1867176;76;26251;-59
2022/09/18 04:57:17;;;;;;;0.85;0.30;;;;;;;;;;1870666;75;26249;-60
2022/09/18 04:59:44;;;;;;;1.02;0.33;;;;;;;;;;1873804;76;26735;-59
2022/09/18 05:02:12;;;;;;;0.80;0.45;;;;;;;;;;1868464;76;26619;-58
2022/09/18 05:04:39;;;;;;;1.22;0.50;;;;;;;;;;1872762;75;27384;-59
2022/09/18 05:07:06;;;;;;;0.75;0.40;;;;;;;;;;1870146;75;26717;-58
2022/09/18 05:09:33;;;;;;;2.08;0.40;;;;;;;;;;1863696;76;27365;-56
2022/09/18 05:12:01;;;;;;;1.10;0.53;;;;;;;;;;1858607;75;26352;-61
2022/09/18 05:14:28;;;;;;;1.75;0.60;;;;;;;;;;1861333;75;26263;-60
2022/09/18 05:16:55;;;;;;;0.50;0.50;;;;;;;;;;1873467;75;27703;-60
2022/09/18 05:19:23;;;;;;;2.55;0.45;;;;;;;;;;1860293;76;27487;-57
2022/09/18 05:21:50;;;;;;;1.15;0.40;;;;;;;;;;1865559;75;26253;-57
2022/09/18 05:24:17;;;;;;;1.00;0.50;;;;;;;;;;1870565;76;26274;-59
2022/09/18 05:26:45;;;;;;;0.95;0.50;;;;;;;;;;1871071;76;26320;-60
2022/09/18 05:29:12;;;;;;;1.17;0.40;;;;;;;;;;1867102;76;26239;-60
2022/09/18 05:31:40;;;;;;;1.55;0.60;;;;;;;;;;1875972;76;27385;-60
2022/09/18 05:34:08;;;;;;;1.07;0.53;;;;;;;;;;1871056;76;26271;-59
2022/09/18 05:36:35;;;;;;;1.25;0.50;;;;;;;;;;1851138;76;26489;-59
2022/09/18 05:39:02;;;;;;;0.50;0.40;;;;;;;;;;1844809;76;26358;-61
2022/09/18 05:41:29;;;;;;;2.22;0.45;;;;;;;;;;1859897;75;26749;-60
2022/09/18 05:43:57;;;;;;;0.80;0.50;;;;;;;;;;1844521;75;26886;-58
2022/09/18 05:46:24;;;;;;;2.50;0.80;;;;;;;;;;1866439;76;26304;-59
2022/09/18 05:48:51;;;;;;;1.70;0.57;;;;;;;;;;1848890;75;26249;-59
2022/09/18 05:51:19;;;;;;;1.82;0.53;;;;;;;;;;1860276;76;26273;-59
2022/09/18 05:53:50;;;;;;;0.50;0.50;;;;;;;;;;1856995;76;26282;-59
2022/09/18 05:56:15;;;;;;;0.40;0.40;;;;;;;;;;1866749;76;27102;-61
2022/09/18 05:58:43;;;;;;;1.17;0.60;;;;;;;;;;1852767;76;26254;-58
2022/09/18 06:01:13;;;;;;;0.45;0.40;;;;;;;;;;1876208;76;26286;-60
2022/09/18 06:03:39;;;;;;;0.80;0.60;;;;;;;;;;1862948;75;26287;-63
2022/09/18 06:06:07;;;;;;;0.60;0.60;;;;;;;;;;1853555;76;27412;-57
2022/09/18 06:08:35;;;;;;;2.05;0.50;;;;;;;;;;1864164;75;26255;-60
2022/09/18 06:11:02;;;;;;;1.62;0.40;;;;;;;;;;1860249;76;26831;-60
2022/09/18 06:13:29;;;;;;;0.80;0.50;;;;;;;;;;1859281;75;26406;-57
2022/09/18 06:15:57;;;;;;;0.72;0.45;;;;;;;;;;1866503;75;26243;-60
2022/09/18 06:18:24;;;;;;;0.42;0.40;;;;;;;;;;1863434;75;26296;-59
2022/09/18 06:20:53;;;;;;;0.57;0.57;;;;;;;;;;1863603;75;26332;-59
2022/09/18 06:23:21;;;;;;;1.25;0.40;;;;;;;;;;1858620;75;26725;-60
2022/09/18 06:25:49;;;;;;;0.75;0.60;;;;;;;;;;1855778;76;26298;-59
2022/09/18 06:28:16;;;;;;;0.40;0.40;;;;;;;;;;1857177;76;26242;-60
2022/09/18 06:30:43;;;;;;;0.40;0.40;;;;;;;;;;1865622;76;26191;-57
2022/09/18 06:33:10;;;;;;;0.35;0.35;;;;;;;;;;1870357;75;26360;-59
2022/09/18 06:35:38;;;;;;;0.50;0.50;;;;;;;;;;1871345;76;26255;-61
2022/09/18 06:38:06;;;;;;;0.37;0.37;;;;;;;;;;1868107;76;26326;-59
2022/09/18 06:40:34;;;;;;;0.40;0.40;;;;;;;;;;1866823;76;26395;-60
2022/09/18 06:43:02;;;;;;;0.50;0.50;;;;;;;;;;1867111;76;26352;-59
2022/09/18 06:45:31;;;;;;;1.35;0.40;;;;;;;;;;1869452;76;26828;-58
2022/09/18 06:48:02;;;;;;;1.80;0.50;;;;;;;;;;1861164;75;26805;-59
2022/09/18 06:50:30;;;;;;;0.40;0.40;;;;;;;;;;1861404;75;26249;-58
2022/09/18 06:53:02;;;;;;;0.47;0.47;;;;;;;;;;1861902;75;26250;-61
2022/09/18 06:55:30;;;;;;;0.55;0.55;;;;;;;;;;1850776;76;26302;-60
2022/09/18 06:57:58;;;;;;;0.50;0.50;;;;;;;;;;1811217;79;26292;-59
2022/09/18 07:00:26;;;;;;;0.78;0.47;;;;;;;;;;1833481;78;27356;-58
2022/09/18 07:02:57;;;;;;;0.50;0.50;;;;;;;;;;1858704;76;26258;-57
2022/09/18 07:05:26;;;;;;;0.40;0.40;;;;;;;;;;1871308;76;26278;-59
2022/09/18 07:07:53;;;;;;;0.40;0.40;;;;;;;;;;1856173;76;26783;-58
2022/09/18 07:10:21;;;;;;;1.85;0.55;;;;;;;;;;1866248;76;26768;-58
2022/09/18 07:12:48;;;;;;;1.55;0.50;;;;;;;;;;1855945;76;26357;-56
2022/09/18 07:15:16;;;;;;;0.60;0.60;;;;;;;;;;1869124;76;26310;-60
2022/09/18 07:17:44;;;;;;;1.65;0.40;;;;;;;;;;1847944;76;26249;-57
2022/09/18 07:20:12;;;;;;;0.85;0.40;;;;;;;;;;1851791;76;26257;-59
2022/09/18 07:22:40;;;;;;;0.40;0.30;;;;;;;;;;1847068;76;26575;-57
2022/09/18 07:25:08;;;;;;;0.47;0.42;;;;;;;;;;1847401;76;26359;-57
2022/09/18 07:27:35;;;;;;;1.75;0.50;;;;;;;;;;1847408;76;26332;-59
2022/09/18 07:30:02;;;;;;;0.50;0.50;;;;;;;;;;1847323;76;26258;-61
2022/09/18 07:32:29;;;;;;;0.75;0.60;;;;;;;;;;1849787;76;26783;-58
2022/09/18 07:34:57;;;;;;;0.40;0.40;;;;;;;;;;1847610;76;26937;-60
2022/09/18 07:37:24;;;;;;;1.85;0.50;;;;;;;;;;1854016;76;27409;-59
2022/09/18 07:39:52;;;;;;;0.82;0.50;;;;;;;;;;1873936;75;26745;-56
2022/09/18 07:42:19;;;;;;;2.62;0.60;;;;;;;;;;1901633;74;26262;-60
2022/09/18 07:44:46;;;;;;;2.25;0.50;;;;;;;;;;1826687;78;26275;-58
2022/09/18 07:47:13;;;;;;;7.30;1.20;;;;;;;;;;1828177;78;26252;-59
2022/09/18 07:49:41;;;;;;;2.02;0.70;;;;;;;;;;1813828;78;26401;-58
2022/09/18 07:52:09;;;;;;;3.35;0.70;;;;;;;;;;1816034;78;26304;-63
2022/09/18 07:54:36;;;;;;;2.62;0.82;;;;;;;;;;1816427;78;26268;-60
2022/09/18 07:57:03;;;;;;;2.85;0.70;;;;;;;;;;1810386;78;26373;-60
2022/09/18 07:59:30;;;;;;;4.90;0.90;;;;;;;;;;1806615;78;26727;-60
2022/09/18 08:01:58;;;;;;;4.00;0.75;;;;;;;;;;1811856;78;26775;-61
2022/09/18 08:04:25;;;;;;;2.83;0.85;;;;;;;;;;1808995;78;26338;-59
2022/09/18 08:06:53;;;;;;;5.47;0.88;;;;;;;;;;1826452;78;26353;-60
2022/09/18 08:09:21;;;;;;;5.90;1.30;;;;;;;;;;1813755;78;26339;-57
2022/09/18 08:11:50;;;;;;;2.83;0.90;;;;;;;;;;1825525;78;26657;-57
2022/09/18 08:14:17;;;;;;;3.17;1.00;;;;;;;;;;1812238;78;26272;-59
2022/09/18 08:16:44;;;;;;;1.00;0.90;;;;;;;;;;1840241;77;26358;-59
2022/09/18 08:19:12;;;;;;;3.83;1.00;;;;;;;;;;1819645;78;26345;-60
2022/09/18 08:21:39;;;;;;;2.25;1.00;;;;;;;;;;1829446;78;26312;-58
2022/09/18 08:24:06;;;;;;;1.15;0.90;;;;;;;;;;1809239;78;26325;-58
2022/09/18 08:26:37;;;;;;;0.90;0.90;;;;;;;;;;1818311;78;26281;-59
2022/09/18 08:29:03;;;;;;;2.47;1.00;;;;;;;;;;1849496;77;26813;-61
2022/09/18 08:31:30;;;;;;;0.90;0.90;;;;;;;;;;1848362;76;26850;-57
2022/09/18 08:33:57;;;;;;;0.90;0.90;;;;;;;;;;1847966;77;26887;-57
2022/09/18 08:36:24;;;;;;;0.88;0.88;;;;;;;;;;1852016;76;26713;-56
2022/09/18 08:38:54;;;;;;;1.00;0.80;;;;;;;;;;1851339;77;26323;-59
2022/09/18 08:41:34;;;;;;;2.85;1.40;;;;;;;;;;1846033;77;26286;-60
2022/09/18 08:44:12;;;;;;;1.45;0.80;;;;;;;;;;1800517;78;26323;-56
2022/09/18 08:46:41;;;;;;;0.80;0.80;;;;;;;;;;1835429;76;26359;-60
2022/09/18 08:49:19;;;;;;;1.22;0.80;;;;;;;;;;1871144;75;26316;-55
2022/09/18 08:51:50;;;;;;;2.30;0.90;;;;;;;;;;1867466;75;26235;-61
2022/09/18 08:54:22;;;;;;;4.45;1.00;;;;;;;;;;1869238;75;26243;-63
2022/09/18 08:56:51;;;;;;;3.08;0.82;;;;;;;;;;1869455;76;26257;-62
2022/09/18 08:59:20;;;;;;;1.15;0.82;;;;;;;;;;1863888;76;26262;-61
2022/09/18 09:01:49;;;;;;;4.20;0.82;;;;;;;;;;1861495;76;26269;-59
2022/09/18 09:04:24;;;;;;;1.47;0.70;;;;;;;;;;1865701;76;26253;-62
2022/09/18 09:06:58;;;;;;;3.83;0.98;;;;;;;;;;1872685;76;26916;-61
2022/09/18 09:09:39;;;;;;;0.70;0.70;;;;;;;;;;1870565;76;26253;-59
2022/09/18 09:12:08;;;;;;;0.78;0.60;;;;;;;;;;1869692;75;26371;-61
2022/09/18 09:14:43;;;;;;;0.85;0.80;;;;;;;;;;1869230;76;26278;-60
2022/09/18 09:17:12;;;;;;;1.62;0.90;;;;;;;;;;1867883;76;26253;-61
2022/09/18 09:19:59;;;;;;;0.70;0.65;;;;;;;;;;1839592;76;26268;-63
2022/09/18 09:22:28;;;;;;;0.70;0.70;;;;;;;;;;1869528;76;26377;-60
2022/09/18 09:25:03;;;;;;;0.70;0.70;;;;;;;;;;1859391;76;26269;-62
2022/09/18 09:27:31;;;;;;;0.70;0.60;;;;;;;;;;1872471;76;26246;-62
2022/09/18 09:30:03;;;;;;;1.77;0.62;;;;;;;;;;1876893;76;26248;-63
2022/09/18 09:32:32;;;;;;;1.25;0.70;;;;;;;;;;1868628;75;26253;-62
2022/09/18 09:35:17;;;;;;;0.65;0.60;;;;;;;;;;1871926;75;26305;-60
2022/09/18 09:37:46;;;;;;;1.92;0.55;;;;;;;;;;1865860;76;27401;-53
2022/09/18 09:40:26;;;;;;;1.25;0.70;;;;;;;;;;1865378;75;26250;-55
2022/09/18 09:42:58;;;;;;;4.65;0.90;;;;;;;;;;1871559;76;26352;-64
2022/09/18 09:45:30;;;;;;;5.40;1.10;;;;;;;;;;1859138;76;26730;-61
2022/09/18 09:48:02;;;;;;;1.60;0.57;;;;;;;;;;1863514;76;26306;-66
2022/09/18 09:50:43;;;;;;;1.00;0.62;;;;;;;;;;1866891;76;26264;-60
2022/09/18 09:53:12;;;;;;;2.22;0.55;;;;;;;;;;1870197;76;26287;-60
2022/09/18 09:55:46;;;;;;;2.55;1.00;;;;;;;;;;1868641;75;26332;-61
2022/09/18 09:58:15;;;;;;;3.25;0.93;;;;;;;;;;1871200;76;26333;-62
2022/09/18 10:00:50;;;;;;;7.00;0.70;;;;;;;;;;1863913;76;26765;-61
2022/09/18 10:03:21;;;;;;;3.00;0.70;;;;;;;;;;1848080;76;26278;-61
2022/09/18 10:05:50;;;;;;;9.80;0.88;;;;;;;;;;1852551;75;26245;-62
2022/09/18 10:08:25;;;;;;;6.22;1.22;;;;;;;;;;1874404;76;26273;-61
2022/09/18 10:10:59;;;;;;;3.30;0.95;;;;;;;;;;1873140;76;27296;-61
2022/09/18 10:13:30;;;;;;;3.40;0.80;;;;;;;;;;1843574;77;26752;-62
2022/09/18 10:15:59;;;;;;;3.12;0.60;;;;;;;;;;1816804;77;26336;-61
2022/09/18 10:18:28;;;;;;;1.95;0.62;;;;;;;;;;1849749;77;26332;-61
2022/09/18 10:20:56;;;;;;;1.37;0.60;;;;;;;;;;1817078;77;26355;-59
2022/09/18 10:23:41;;;;;;;0.60;0.60;;;;;;;;;;1837640;77;26251;-61
2022/09/18 10:26:15;;;;;;;1.52;0.60;;;;;;;;;;1801821;78;26861;-57
2022/09/18 10:28:42;;;;;;;0.78;0.78;;;;;;;;;;1767322;77;26278;-59
2022/09/18 10:31:11;;;;;;;0.70;0.70;;;;;;;;;;1822556;77;26375;-59
2022/09/18 10:33:39;;;;;;;2.70;0.70;;;;;;;;;;1823928;77;26333;-70
2022/09/18 10:36:21;;;;;;;1.17;0.57;;;;;;;;;;1819148;77;26337;-68
2022/09/18 10:38:49;;;;;;;4.20;0.90;;;;;;;;;;1852088;76;26368;-64
2022/09/18 10:41:20;;;;;;;1.42;0.78;;;;;;;;;;1837721;76;26251;-64
2022/09/18 10:43:52;;;;;;;3.37;0.90;;;;;;;;;;1814152;78;26777;-64
2022/09/18 10:46:24;;;;;;;2.00;0.72;;;;;;;;;;1847586;77;26286;-64
2022/09/18 10:48:51;;;;;;;0.60;0.60;;;;;;;;;;1812398;77;26371;-63
2022/09/18 10:51:24;;;;;;;2.47;0.60;;;;;;;;;;1820000;77;27287;-61
2022/09/18 10:53:49;;;;;;;4.45;0.68;;;;;;;;;;1819656;77;26277;-64
2022/09/18 10:56:18;;;;;;;2.30;0.60;;;;;;;;;;1818890;77;26733;-64
2022/09/18 10:58:46;;;;;;;0.50;0.42;;;;;;;;;;1821142;77;26304;-63
2022/09/18 11:01:14;;;;;;;4.08;0.70;;;;;;;;;;1817067;77;26295;-63
2022/09/18 11:03:45;;;;;;;2.15;0.60;;;;;;;;;;1823497;78;26355;-64
2022/09/18 11:06:24;;;;;;;2.12;0.60;;;;;;;;;;1848669;77;26326;-64
2022/09/18 11:08:55;;;;;;;3.25;0.70;;;;;;;;;;1847791;76;27179;-65
2022/09/18 11:11:35;;;;;;;1.32;0.50;;;;;;;;;;1802026;79;26398;-64
2022/09/18 11:14:04;;;;;;;1.57;0.70;;;;;;;;;;1850760;76;26302;-70
2022/09/18 11:16:33;;;;;;;4.70;0.80;;;;;;;;;;1818275;77;26332;-62
2022/09/18 11:19:08;;;;;;;4.60;0.75;;;;;;;;;;1852735;76;26313;-63
2022/09/18 11:21:37;;;;;;;4.00;0.50;;;;;;;;;;1869389;76;26408;-64
2022/09/18 11:24:05;;;;;;;1.98;0.60;;;;;;;;;;1856009;76;26267;-64
2022/09/18 11:26:33;;;;;;;4.87;0.60;;;;;;;;;;1880700;76;26260;-64
2022/09/18 11:29:08;;;;;;;2.42;0.60;;;;;;;;;;1868688;76;26204;-63
2022/09/18 11:31:43;;;;;;;2.67;0.60;;;;;;;;;;1878263;76;26260;-63
2022/09/18 11:34:18;;;;;;;2.12;0.57;;;;;;;;;;1865243;76;26291;-64
2022/09/18 11:36:46;;;;;;;1.60;0.60;;;;;;;;;;1830983;77;26212;-63
2022/09/18 11:39:16;;;;;;;0.95;0.60;;;;;;;;;;1859518;76;26262;-64
2022/09/18 11:41:43;;;;;;;2.10;0.68;;;;;;;;;;1863364;76;26368;-64
2022/09/18 11:44:12;;;;;;;6.15;0.55;;;;;;;;;;1799261;78;26964;-64
2022/09/18 11:46:57;;;;;;;2.60;0.68;;;;;;;;;;1835635;78;26812;-64
2022/09/18 11:49:32;;;;;;;1.82;0.60;;;;;;;;;;1818953;78;27257;-64
2022/09/18 11:52:01;;;;;;;2.72;0.57;;;;;;;;;;1838585;77;26304;-63
2022/09/18 11:54:35;;;;;;;3.15;0.82;;;;;;;;;;1825342;77;26357;-64
2022/09/18 11:57:04;;;;;;;1.65;0.70;;;;;;;;;;1844541;77;26336;-64
2022/09/18 11:59:33;;;;;;;1.62;1.17;;;;;;;;;;1845963;77;26266;-64
2022/09/18 12:02:02;;;;;;;2.87;1.80;;;;;;;;;;1843494;77;26412;-64
2022/09/18 12:04:40;;;;;;;5.15;2.30;;;;;;;;;;1849311;76;26757;-64
2022/09/18 12:07:25;;;;;;;5.85;2.67;;;;;;;;;;1819472;77;26792;-63
2022/09/18 12:10:11;;;;;;;3.37;2.65;;;;;;;;;;1832031;77;26340;-64
2022/09/18 12:12:40;;;;;;;3.47;2.33;;;;;;;;;;1858502;77;26563;-64
2022/09/18 12:15:11;;;;;;;2.20;2.10;;;;;;;;;;1850715;77;26801;-64
2022/09/18 12:17:40;;;;;;;2.15;1.72;;;;;;;;;;1850655;77;26260;-63
2022/09/18 12:20:21;;;;;;;1.80;1.70;;;;;;;;;;1808533;78;26390;-63
2022/09/18 12:22:53;;;;;;;2.77;1.45;;;;;;;;;;1839025;77;26300;-63
2022/09/18 12:25:22;;;;;;;1.40;1.40;;;;;;;;;;1857729;76;26215;-63
2022/09/18 12:27:53;;;;;;;1.30;1.30;;;;;;;;;;1817244;78;26267;-64
2022/09/18 12:30:22;;;;;;;1.32;1.15;;;;;;;;;;1849317;77;27353;-64
2022/09/18 12:33:08;;;;;;;1.17;0.90;;;;;;;;;;1855592;77;27320;-64
2022/09/18 12:35:39;;;;;;;0.80;0.80;;;;;;;;;;1821788;78;26301;-64
2022/09/18 12:38:11;;;;;;;0.70;0.70;;;;;;;;;;1836809;77;26774;-64
2022/09/18 12:40:45;;;;;;;0.70;0.70;;;;;;;;;;1838406;77;26294;-64
2022/09/18 12:43:31;;;;;;;0.53;0.53;;;;;;;;;;1840317;77;26231;-64
2022/09/18 12:46:06;;;;;;;2.08;0.78;;;;;;;;;;1829765;78;26269;-63
2022/09/18 12:51:42;;;;;;;0.62;0.60;;;;;;;;;;1868017;75;26324;-65
2022/09/18 12:54:14;;;;;;;1.45;0.50;;;;;;;;;;1868522;75;26283;-63
2022/09/18 12:56:52;;;;;;;0.50;0.50;;;;;;;;;;1859754;75;26256;-64
2022/09/18 12:59:27;;;;;;;0.60;0.30;;;;;;;;;;1872348;75;26361;-63
2022/09/18 13:02:02;;;;;;;0.75;0.45;;;;;;;;;;1865636;75;26260;-64
2022/09/18 13:04:40;;;;;;;3.50;0.50;;;;;;;;;;1870353;75;26880;-66
2022/09/18 13:07:09;;;;;;;3.87;0.50;;;;;;;;;;1867860;75;26273;-61
2022/09/18 13:09:40;;;;;;;1.47;0.50;;;;;;;;;;1856952;75;26331;-62
2022/09/18 13:12:12;;;;;;;1.35;0.30;;;;;;;;;;1873562;75;26214;-60
2022/09/18 13:14:40;;;;;;;3.15;0.40;;;;;;;;;;1872630;75;26294;-62
2022/09/18 13:17:09;;;;;;;0.40;0.40;;;;;;;;;;1874292;75;26728;-62
2022/09/18 13:19:38;;;;;;;1.15;0.30;;;;;;;;;;1868488;75;26257;-63
2022/09/18 13:22:07;;;;;;;1.25;0.30;;;;;;;;;;1861573;75;26357;-62
2022/09/18 13:24:35;;;;;;;0.23;0.23;;;;;;;;;;1883490;75;26348;-62
2022/09/18 13:27:04;;;;;;;0.42;0.40;;;;;;;;;;1910927;75;26274;-62
2022/09/18 13:29:50;;;;;;;0.28;0.25;;;;;;;;;;1888172;75;26623;-61
2022/09/18 13:32:18;;;;;;;0.40;0.40;;;;;;;;;;1895826;75;26206;-62
2022/09/18 13:34:53;;;;;;;0.30;0.30;;;;;;;;;;1885933;75;26273;-63
2022/09/18 13:37:22;;;;;;;0.30;0.30;;;;;;;;;;1866912;75;26256;-63
2022/09/18 13:39:57;;;;;;;1.65;0.33;;;;;;;;;;1895890;75;26226;-61
2022/09/18 13:42:28;;;;;;;1.55;0.20;;;;;;;;;;1870966;75;26276;-61
2022/09/18 13:44:57;;;;;;;0.20;0.20;;;;;;;;;;1865289;75;27461;-65
2022/09/18 13:47:24;;;;;;;0.95;0.20;;;;;;;;;;1890883;75;26266;-60
2022/09/18 13:49:54;;;;;;;0.20;0.20;;;;;;;;;;1908923;74;26274;-60
2022/09/18 13:52:34;;;;;;;0.20;0.20;;;;;;;;;;1862454;75;26281;-59
2022/09/18 13:55:12;;;;;;;0.30;0.30;;;;;;;;;;1893138;75;26381;-61
2022/09/18 13:57:40;;;;;;;0.30;0.30;;;;;;;;;;1869048;75;26242;-62
2022/09/18 14:00:22;;;;;;;0.62;0.20;;;;;;;;;;1872691;75;26255;-62
2022/09/18 14:02:50;;;;;;;0.20;0.20;;;;;;;;;;1871459;75;26211;-59
2022/09/18 14:05:21;;;;;;;0.20;0.20;;;;;;;;;;1858506;75;26278;-59
2022/09/18 14:07:50;;;;;;;0.42;0.20;;;;;;;;;;1866595;75;26306;-62
2022/09/18 14:10:22;;;;;;;0.45;0.20;;;;;;;;;;1880538;75;26356;-60
2022/09/18 14:13:07;;;;;;;0.13;0.13;;;;;;;;;;1872607;75;26259;-60
2022/09/18 14:15:35;;;;;;;0.20;0.20;;;;;;;;;;1879979;75;26360;-62
2022/09/18 14:18:05;;;;;;;0.20;0.20;;;;;;;;;;1873302;75;26267;-62
2022/09/18 14:20:33;;;;;;;0.10;0.10;;;;;;;;;;1863226;75;26269;-62
2022/09/18 14:23:18;;;;;;;0.20;0.20;;;;;;;;;;1873159;75;26363;-60
2022/09/18 14:25:47;;;;;;;0.20;0.20;;;;;;;;;;1859245;75;26365;-61
2022/09/18 14:28:16;;;;;;;3.85;0.90;;;;;;;;;;1863709;75;26341;-60
2022/09/18 14:30:43;;;;;;;0.20;0.20;;;;;;;;;;1865010;75;26219;-61
2022/09/18 14:33:12;;;;;;;0.10;0.10;;;;;;;;;;1866032;75;26861;-60
2022/09/18 14:35:44;;;;;;;0.10;0.10;;;;;;;;;;1872704;75;26777;-60
2022/09/18 14:38:18;;;;;;;0.20;0.20;;;;;;;;;;1873666;75;26258;-62
2022/09/18 14:40:51;;;;;;;0.88;0.20;;;;;;;;;;1869509;75;27129;-64
2022/09/18 14:43:20;;;;;;;0.20;0.20;;;;;;;;;;1870951;75;26351;-61
2022/09/18 14:45:48;;;;;;;0.20;0.20;;;;;;;;;;1847751;76;26298;-61
2022/09/18 14:48:29;;;;;;;0.10;0.10;;;;;;;;;;1886621;75;26715;-61
2022/09/18 14:51:01;;;;;;;0.20;0.20;;;;;;;;;;1883785;75;26274;-63
2022/09/18 14:53:29;;;;;;;0.10;0.10;;;;;;;;;;1893883;75;26300;-60
2022/09/18 14:56:03;;;;;;;0.10;0.10;;;;;;;;;;1910365;75;26246;-60
2022/09/18 14:58:32;;;;;;;0.15;0.10;;;;;;;;;;1873832;75;26259;-60
2022/09/18 15:01:01;;;;;;;0.20;0.20;;;;;;;;;;1894218;75;26339;-62
2022/09/18 15:03:30;;;;;;;0.10;0.10;;;;;;;;;;1903789;75;26812;-60